Time;durP1;ratioP1;P1;durP2;ratioP2;P2;SDS_P1;SDS_P2;PMS_P1;PMS_P2;Temp;Humidity;BMP_temperature;BMP_pressure;BME280_temperature;BME280_humidity;BME280_pressure;Samples;Min_cycle;Max_cycle;Signal;HPM_P1;HPM_P2
2021/12/16 00:03:29;;;;;;;124.03;45.00;;;;;;;0.41;92.32;102017.72;5033997;28;20048;-77
2021/12/16 00:09:03;;;;;;;128.95;47.45;;;;;;;0.63;91.93;102025.47;5051028;28;20449;-77
2021/12/16 00:34:01;;;;;;;110.10;43.65;;;;;;;1.25;91.60;102015.44;4940439;29;20034;-78
2021/12/16 00:36:41;;;;;;;111.90;44.40;;;;;;;1.22;91.38;102029.47;4931730;29;20075;-77
2021/12/16 00:39:34;;;;;;;114.93;45.17;;;;;;;1.17;91.63;102020.38;4932331;29;20052;-77
2021/12/16 00:56:58;;;;;;;104.93;41.28;;;;;;;1.03;91.65;102024.94;4932082;29;20070;-77
2021/12/16 00:59:48;;;;;;;112.95;41.92;;;;;;;1.00;91.99;102011.38;4941649;28;20497;-76
2021/12/16 01:05:51;;;;;;;103.38;41.58;;;;;;;1.03;91.78;102011.13;5047069;28;20025;-77
2021/12/16 01:40:23;;;;;;;117.22;43.35;;;;;;;0.92;91.23;101996.41;4981763;28;20031;-77
2021/12/16 01:57:54;;;;;;;114.63;40.90;;;;;;;0.88;91.24;101989.81;4984067;28;20041;-77
2021/12/16 02:00:58;;;;;;;115.85;42.70;;;;;;;0.83;91.40;101972.03;4987436;28;20214;-77
2021/12/16 02:03:54;;;;;;;116.63;42.88;;;;;;;0.85;91.68;101971.91;4991217;28;20034;-77
2021/12/16 02:07:02;;;;;;;109.28;42.22;;;;;;;0.92;91.41;101980.03;4974905;28;20042;-77
2021/12/16 02:09:48;;;;;;;106.43;41.95;;;;;;;0.90;91.43;101972.38;5009973;28;20041;-77
2021/12/16 02:36:45;;;;;;;112.82;40.90;;;;;;;0.83;91.50;101959.06;5053915;28;20040;-78
2021/12/16 02:39:34;;;;;;;119.65;42.25;;;;;;;0.71;91.63;101928.13;5054186;28;20045;-78
2021/12/16 02:42:25;;;;;;;105.47;39.97;;;;;;;0.91;91.53;101957.63;5053571;28;20048;-78
2021/12/16 02:48:29;;;;;;;119.68;41.40;;;;;;;0.83;91.31;101947.88;5050310;28;20082;-77
2021/12/16 02:51:27;;;;;;;157.82;45.75;;;;;;;0.86;91.62;101950.22;5052526;28;20041;-77
2021/12/16 02:54:14;;;;;;;120.18;40.85;;;;;;;0.84;91.46;101947.75;5050171;28;20032;-78
2021/12/16 02:56:59;;;;;;;120.60;41.35;;;;;;;0.82;91.47;101949.66;5053437;28;20136;-77
2021/12/16 02:59:47;;;;;;;118.45;41.17;;;;;;;0.86;91.54;101950.22;5052896;28;20033;-77
2021/12/16 03:02:33;;;;;;;120.75;41.20;;;;;;;0.79;91.17;101939.53;5052843;28;20068;-77
2021/12/16 03:05:21;;;;;;;116.25;41.55;;;;;;;0.79;91.34;101938.69;5052289;28;20521;-77
2021/12/16 03:08:08;;;;;;;126.63;42.83;;;;;;;0.73;91.37;101939.19;5052944;28;20567;-77
2021/12/16 03:14:21;;;;;;;97.45;32.35;;;;;;;0.66;91.45;101928.47;5050109;28;20112;-77
2021/12/16 03:17:06;;;;;;;126.40;43.10;;;;;;;0.71;91.44;101941.09;5051743;28;20036;-77
2021/12/16 03:25:49;;;;;;;256.70;47.70;;;;;;;0.63;91.65;101932.16;5052211;28;20048;-78
2021/12/16 03:37:43;;;;;;;130.32;44.15;;;;;;;0.58;91.65;101936.06;5035317;28;20148;-78
2021/12/16 03:40:29;;;;;;;142.00;44.03;;;;;;;0.66;91.97;101956.19;5053617;28;20037;-77
2021/12/16 03:43:18;;;;;;;139.35;44.55;;;;;;;0.67;91.45;101942.25;5050315;28;20040;-78
2021/12/16 03:49:08;;;;;;;138.80;44.72;;;;;;;0.71;91.80;101954.03;5051706;28;20046;-77
2021/12/16 03:51:59;;;;;;;130.35;43.45;;;;;;;0.74;91.46;101953.78;5050012;28;20482;-77
2021/12/16 03:54:52;;;;;;;130.32;45.20;;;;;;;0.69;91.56;101942.97;5048248;28;20044;-78
2021/12/16 03:57:38;;;;;;;126.65;42.75;;;;;;;0.75;91.32;101942.50;5046837;28;20041;-77
2021/12/16 04:00:30;;;;;;;122.65;43.63;;;;;;;0.70;91.38;101942.03;5052291;28;20029;-77
2021/12/16 04:03:16;;;;;;;118.30;42.70;;;;;;;0.71;91.61;101962.63;5051134;28;20041;-77
2021/12/16 04:06:03;;;;;;;165.57;47.30;;;;;;;0.75;91.68;101964.06;5048033;28;20044;-77
2021/12/16 04:08:52;;;;;;;132.38;43.22;;;;;;;0.73;91.48;101950.38;5050743;28;20037;-78
2021/12/16 04:11:44;;;;;;;99.88;32.30;;;;;;;0.79;91.58;101956.84;5046329;28;20068;-77
2021/12/16 04:14:30;;;;;;;131.68;40.65;;;;;;;0.75;91.61;101948.50;5051391;28;20048;-77
2021/12/16 04:17:20;;;;;;;130.93;42.67;;;;;;;0.77;91.69;101956.16;5052347;28;20514;-76
2021/12/16 04:20:07;;;;;;;;;;;;;;;0.78;91.73;101955.19;5047614;28;20048;-77
2021/12/16 04:22:53;;;;;;;125.53;39.35;;;;;;;0.66;91.27;101948.41;5052255;28;20289;-77
2021/12/16 04:25:43;;;;;;;121.50;42.75;;;;;;;0.77;91.45;101953.56;5052342;28;20108;-77
2021/12/16 04:28:30;;;;;;;142.45;43.90;;;;;;;0.75;91.55;101956.28;5051896;28;20044;-77
2021/12/16 04:31:16;;;;;;;132.15;43.83;;;;;;;0.77;91.64;101949.19;5051661;28;20056;-78
2021/12/16 04:34:07;;;;;;;132.68;43.58;;;;;;;0.77;91.11;101944.00;5047054;28;20041;-78
2021/12/16 04:36:55;;;;;;;140.35;43.90;;;;;;;0.76;91.62;101950.13;5050668;28;20029;-77
2021/12/16 04:39:42;;;;;;;132.70;44.63;;;;;;;0.76;91.52;101949.31;5052511;28;20089;-78
2021/12/16 04:42:28;;;;;;;138.70;45.28;;;;;;;0.73;91.54;101937.41;5049082;28;20028;-77
2021/12/16 04:45:18;;;;;;;138.55;43.70;;;;;;;0.82;91.40;101946.25;5051727;28;20037;-77
2021/12/16 04:48:04;;;;;;;128.20;41.78;;;;;;;0.70;90.94;101934.25;5051464;28;20037;-77
2021/12/16 04:50:50;;;;;;;128.73;45.08;;;;;;;0.66;91.29;101927.66;5043899;28;20037;-78
2021/12/16 04:53:38;;;;;;;130.25;43.92;;;;;;;0.68;91.69;101941.34;5048996;28;20111;-77
2021/12/16 04:56:24;;;;;;;128.73;44.38;;;;;;;0.75;91.95;101963.25;5051096;28;20502;-77
2021/12/16 04:59:13;;;;;;;122.70;41.28;;;;;;;0.68;91.48;101960.28;5050995;28;20045;-78
2021/12/16 05:02:14;;;;;;;130.90;43.00;;;;;;;0.73;92.02;101965.13;5050757;28;20131;-78
2021/12/16 05:05:00;;;;;;;114.95;42.60;;;;;;;0.66;91.81;101953.59;5049197;28;20040;-76
2021/12/16 05:07:47;;;;;;;122.53;42.40;;;;;;;0.72;91.79;101948.75;5051041;28;20509;-76
2021/12/16 05:10:33;;;;;;;115.00;40.70;;;;;;;0.72;91.60;101961.72;5050634;28;20088;-75
2021/12/16 05:13:22;;;;;;;161.05;46.25;;;;;;;0.72;91.39;101966.06;5045883;28;20090;-75
2021/12/16 05:16:08;;;;;;;;;;;;;;;0.76;91.76;101968.28;5051577;28;20044;-77
2021/12/16 05:18:55;;;;;;;122.95;40.80;;;;;;;0.70;91.70;101962.78;5047873;28;19931;-77
2021/12/16 05:24:48;;;;;;;116.10;43.08;;;;;;;0.71;91.54;101965.22;5027491;28;20033;-77
2021/12/16 05:27:34;;;;;;;126.53;43.38;;;;;;;0.69;91.79;101971.47;5053498;28;20045;-76
2021/12/16 05:30:19;;;;;;;130.50;43.42;;;;;;;0.74;92.03;101967.59;5052923;28;20116;-77
2021/12/16 05:33:06;;;;;;;128.98;43.03;;;;;;;0.74;91.54;101961.56;5055552;28;20029;-77
2021/12/16 05:35:53;;;;;;;129.43;42.08;;;;;;;0.69;91.67;101953.34;5055868;28;20033;-78
2021/12/16 05:38:39;;;;;;;121.63;42.72;;;;;;;0.68;91.90;101956.88;5055171;28;20083;-76
2021/12/16 05:41:26;;;;;;;133.27;43.70;;;;;;;0.78;91.66;101973.34;5054203;28;20060;-76
2021/12/16 05:44:11;;;;;;;132.02;42.67;;;;;;;0.71;91.33;101943.66;5055617;28;20079;-76
2021/12/16 05:46:57;;;;;;;143.35;45.33;;;;;;;0.69;91.78;101953.34;5055253;28;20560;-76
2021/12/16 05:49:43;;;;;;;134.32;43.08;;;;;;;0.69;91.83;101955.94;5056107;28;20120;-76
2021/12/16 05:52:29;;;;;;;131.15;43.53;;;;;;;0.71;91.76;101956.63;5055178;28;20025;-76
2021/12/16 05:55:16;;;;;;;146.00;46.75;;;;;;;0.76;91.83;101952.72;5057095;28;20116;-76
2021/12/16 05:58:05;;;;;;;147.23;44.42;;;;;;;0.71;91.88;101956.63;5056877;28;20445;-76
2021/12/16 06:01:05;;;;;;;139.02;44.28;;;;;;;0.82;91.85;101973.00;5050292;28;20033;-76
2021/12/16 06:03:52;;;;;;;138.73;46.28;;;;;;;0.84;91.87;101965.09;5056477;28;20037;-76
2021/12/16 06:06:38;;;;;;;144.10;45.10;;;;;;;0.83;91.69;101956.47;5050085;28;20456;-76
2021/12/16 06:09:24;;;;;;;143.88;43.00;;;;;;;0.79;91.91;101952.50;5053105;28;20037;-72
2021/12/16 06:12:10;;;;;;;143.60;45.47;;;;;;;0.93;92.09;101971.31;5047357;28;20041;-75
2021/12/16 06:15:45;;;;;;;152.10;47.55;;;;;;;0.96;92.45;101964.13;5055015;28;20029;-73
2021/12/16 06:27:23;;;;;;;171.65;50.22;;;;;;;1.40;92.29;101971.81;5051896;28;20037;-72
2021/12/16 06:30:11;;;;;;;157.60;47.78;;;;;;;1.47;91.76;101973.78;5044680;28;20049;-73
2021/12/16 06:32:57;;;;;;;155.13;48.40;;;;;;;1.60;91.14;101981.38;5038864;28;20037;-73
2021/12/16 06:35:43;;;;;;;138.88;44.42;;;;;;;1.67;91.11;101979.91;5044904;28;20029;-73
2021/12/16 06:38:29;;;;;;;141.20;44.30;;;;;;;1.69;91.07;101980.63;5054178;28;20087;-73
2021/12/16 06:41:16;;;;;;;140.70;43.70;;;;;;;1.71;91.03;101983.09;5035105;28;20037;-73
2021/12/16 06:44:15;;;;;;;139.50;43.95;;;;;;;1.73;90.82;101981.19;5044438;28;20029;-72
2021/12/16 06:47:07;;;;;;;127.75;43.83;;;;;;;1.73;90.82;101982.97;5050632;28;20490;-72
2021/12/16 06:49:54;;;;;;;147.70;46.33;;;;;;;1.64;90.68;101966.38;5054207;28;20490;-73
2021/12/16 06:52:46;;;;;;;149.27;45.35;;;;;;;1.77;90.79;101986.94;5050916;28;20493;-75
2021/12/16 06:55:48;;;;;;;140.65;44.95;;;;;;;1.70;90.78;101974.50;5046968;28;20037;-77
2021/12/16 07:01:37;;;;;;;140.70;45.28;;;;;;;1.66;90.65;101985.25;5053247;28;20493;-77
2021/12/16 07:04:23;;;;;;;139.30;44.65;;;;;;;1.62;90.85;101965.69;5052693;28;20037;-78
2021/12/16 07:07:10;;;;;;;143.32;46.03;;;;;;;1.62;90.54;101973.47;5052276;28;20029;-77
2021/12/16 07:09:56;;;;;;;152.10;46.67;;;;;;;1.51;90.86;101968.34;5047093;28;20175;-77
2021/12/16 07:12:47;;;;;;;147.85;47.58;;;;;;;1.53;90.63;101972.44;5049414;28;20052;-77
2021/12/16 07:15:35;;;;;;;156.82;48.60;;;;;;;1.42;90.85;101975.94;5052189;28;20095;-77
2021/12/16 07:18:21;;;;;;;169.18;48.78;;;;;;;1.40;90.95;101962.25;5047140;28;20043;-77
2021/12/16 07:21:07;;;;;;;158.23;49.42;;;;;;;1.43;90.64;101968.97;5053013;28;20520;-77
2021/12/16 07:23:53;;;;;;;156.98;48.60;;;;;;;1.42;91.09;101972.53;5052071;28;20040;-77
2021/12/16 07:26:40;;;;;;;165.95;49.47;;;;;;;1.40;91.01;101967.44;5048355;28;20036;-77
2021/12/16 07:29:27;;;;;;;166.23;49.30;;;;;;;1.43;91.23;101974.97;5043086;28;20041;-75
2021/12/16 07:32:13;;;;;;;189.20;53.03;;;;;;;1.23;91.13;101958.47;5047862;28;20544;-75
2021/12/16 07:35:00;;;;;;;187.65;52.70;;;;;;;1.41;91.79;101984.69;5050737;28;20057;-74
2021/12/16 07:37:47;;;;;;;199.00;56.30;;;;;;;1.47;92.08;101985.94;5052659;28;20127;-75
2021/12/16 07:40:34;;;;;;;193.30;55.22;;;;;;;1.55;91.85;101985.31;5048763;28;20115;-75
2021/12/16 07:46:25;;;;;;;207.35;56.97;;;;;;;1.51;91.92;101956.19;5049984;28;20032;-75
2021/12/16 07:49:15;;;;;;;208.32;59.92;;;;;;;1.75;91.78;101983.66;5050158;28;20029;-75
2021/12/16 07:52:05;;;;;;;198.52;57.47;;;;;;;1.87;91.62;101993.84;5048759;28;20395;-75
2021/12/16 07:54:51;;;;;;;182.00;54.60;;;;;;;1.88;91.07;101982.50;5050456;28;20090;-74
2021/12/16 07:57:37;;;;;;;192.05;56.80;;;;;;;1.75;91.25;101963.72;5050381;28;20098;-75
2021/12/16 08:00:28;;;;;;;188.05;54.03;;;;;;;1.97;91.13;101990.50;5052489;28;20407;-75
2021/12/16 08:03:15;;;;;;;183.90;56.40;;;;;;;1.95;91.20;101984.59;5051051;28;20436;-75
2021/12/16 08:06:09;;;;;;;179.52;55.17;;;;;;;2.11;91.06;101996.16;5049279;28;20048;-75
2021/12/16 08:08:59;;;;;;;207.27;58.53;;;;;;;2.09;90.86;101982.47;5051254;28;20063;-74
2021/12/16 08:11:48;;;;;;;225.75;62.38;;;;;;;2.18;90.55;101980.88;5048660;28;20724;-78
2021/12/16 08:14:34;;;;;;;174.35;55.92;;;;;;;2.17;90.42;101981.00;5049752;28;20443;-78
2021/12/16 08:17:20;;;;;;;157.32;51.67;;;;;;;1.88;90.47;101940.94;5050706;28;20457;-78
2021/12/16 08:20:07;;;;;;;161.68;51.33;;;;;;;2.07;90.87;101975.78;5049661;28;20433;-78
2021/12/16 08:22:56;;;;;;;157.20;49.15;;;;;;;2.09;91.07;101987.69;5051316;28;20090;-78
2021/12/16 08:25:42;;;;;;;160.95;50.97;;;;;;;2.03;91.13;101982.97;5052025;28;20041;-78
2021/12/16 08:28:28;;;;;;;157.35;48.17;;;;;;;2.04;91.11;101982.03;5038208;28;20389;-79
2021/12/16 08:31:14;;;;;;;155.73;50.70;;;;;;;2.01;91.44;101974.53;5044708;28;20079;-78
2021/12/16 08:34:00;;;;;;;151.82;51.05;;;;;;;2.02;91.15;101975.34;5043066;28;20086;-77
2021/12/16 08:36:46;;;;;;;153.80;48.65;;;;;;;1.87;90.93;101962.69;5050738;28;20037;-78
2021/12/16 08:39:34;;;;;;;142.18;49.95;;;;;;;1.91;91.23;101973.63;5049718;28;20507;-78
2021/12/16 08:42:20;;;;;;;149.90;51.35;;;;;;;1.88;91.04;101961.72;5048797;28;20048;-79
2021/12/16 08:45:09;;;;;;;145.60;47.78;;;;;;;1.87;91.04;101960.09;5051109;28;20048;-78
2021/12/16 08:47:58;;;;;;;153.90;50.58;;;;;;;1.94;91.08;101977.75;5057921;28;20033;-78
2021/12/16 08:50:46;;;;;;;146.65;50.88;;;;;;;1.92;91.34;101981.31;5050266;28;20043;-79
2021/12/16 08:53:32;;;;;;;144.40;51.40;;;;;;;1.95;91.15;101974.22;5050502;28;20109;-78
2021/12/16 08:56:18;;;;;;;144.70;51.28;;;;;;;1.88;91.19;101959.13;5048763;28;20120;-78
2021/12/16 08:59:06;;;;;;;155.70;53.15;;;;;;;1.99;91.07;101965.19;5044255;28;20036;-78
2021/12/16 09:01:55;;;;;;;170.70;56.33;;;;;;;1.98;90.83;101964.38;5048921;28;20776;-78
2021/12/16 09:04:41;;;;;;;;;;;;;;;2.03;90.99;101969.19;5046337;28;20499;-79
2021/12/16 09:07:27;;;;;;;146.32;50.60;;;;;;;2.00;90.88;101957.28;5059254;28;20267;-79
2021/12/16 09:10:14;;;;;;;154.77;54.78;;;;;;;1.92;90.97;101934.53;5051277;28;20045;-79
2021/12/16 09:13:03;;;;;;;151.60;52.30;;;;;;;2.01;91.39;101950.28;5053844;28;20246;-78
2021/12/16 09:16:00;;;;;;;153.98;53.40;;;;;;;2.01;91.10;101952.88;5046735;28;20037;-79
2021/12/16 09:18:45;;;;;;;161.93;57.47;;;;;;;2.05;91.07;101949.91;5052128;28;20052;-79
2021/12/16 09:21:35;;;;;;;158.50;59.30;;;;;;;2.04;91.17;101945.69;5049920;28;20072;-78
2021/12/16 09:24:20;;;;;;;159.20;57.75;;;;;;;2.15;91.56;101952.53;5049226;28;20033;-78
2021/12/16 09:27:06;;;;;;;160.48;61.15;;;;;;;2.21;90.86;101953.81;5046383;28;20048;-79
2021/12/16 09:29:53;;;;;;;178.95;61.97;;;;;;;2.23;90.99;101952.72;5050829;28;20033;-78
2021/12/16 09:32:39;;;;;;;156.15;60.97;;;;;;;2.25;90.98;101953.41;5050764;28;20029;-79
2021/12/16 09:35:27;;;;;;;173.40;64.07;;;;;;;2.19;91.39;101940.94;5046967;28;20070;-79
2021/12/16 09:38:15;;;;;;;168.35;62.05;;;;;;;2.13;91.39;101926.69;5051108;28;20029;-79
2021/12/16 09:41:01;;;;;;;200.95;64.30;;;;;;;2.17;91.93;101921.22;5051759;28;20475;-78
2021/12/16 09:43:49;;;;;;;185.13;65.15;;;;;;;2.32;91.60;101919.91;5049567;28;20041;-79
2021/12/16 09:46:35;;;;;;;175.73;65.93;;;;;;;2.30;90.98;101909.66;5049518;28;20090;-79
2021/12/16 09:49:21;;;;;;;171.43;62.33;;;;;;;2.24;90.67;101912.78;5049734;28;20029;-79
2021/12/16 09:52:10;;;;;;;161.23;63.10;;;;;;;2.31;91.12;101916.47;5049764;28;20466;-79
2021/12/16 09:54:56;;;;;;;162.30;61.08;;;;;;;2.30;91.13;101922.66;5048922;28;20072;-79
2021/12/16 09:57:43;;;;;;;157.77;61.97;;;;;;;2.39;90.94;101920.19;5049782;28;20044;-79
2021/12/16 10:00:29;;;;;;;170.05;62.42;;;;;;;2.44;91.11;101921.47;5049985;28;20029;-79
2021/12/16 10:03:16;;;;;;;160.65;60.13;;;;;;;2.35;91.00;101906.66;5049582;28;20045;-79
2021/12/16 10:06:01;;;;;;;169.95;62.15;;;;;;;2.38;90.82;101908.97;5047686;28;20033;-79
2021/12/16 10:08:47;;;;;;;183.50;64.65;;;;;;;2.43;90.89;101924.19;5049767;28;20497;-78
2021/12/16 10:11:35;;;;;;;174.02;65.38;;;;;;;2.34;90.34;101903.22;5054449;28;20434;-78
2021/12/16 10:17:25;;;;;;;172.10;64.18;;;;;;;2.55;90.38;101907.50;5053567;28;20029;-79
2021/12/16 10:20:22;;;;;;;151.90;59.08;;;;;;;2.57;90.78;101896.97;5051640;28;20124;-79
2021/12/16 10:23:13;;;;;;;161.90;61.90;;;;;;;2.68;91.20;101902.03;5053556;28;20075;-79
2021/12/16 10:26:04;;;;;;;149.57;59.03;;;;;;;2.70;91.01;101887.13;5053037;28;20457;-77
2021/12/16 10:28:54;;;;;;;155.32;61.47;;;;;;;2.85;91.55;101888.38;5048396;28;20048;-72
2021/12/16 10:31:40;;;;;;;154.52;58.47;;;;;;;2.94;91.15;101889.31;5053789;28;20146;-74
2021/12/16 10:34:27;;;;;;;145.68;59.03;;;;;;;2.93;90.62;101874.66;5052749;28;20036;-73
2021/12/16 10:37:13;;;;;;;144.38;58.17;;;;;;;3.00;90.49;101872.34;5049008;28;20043;-73
2021/12/16 10:40:22;;;;;;;136.35;55.90;;;;;;;3.11;89.83;101890.38;5053410;28;20043;-74
2021/12/16 10:43:11;;;;;;;132.38;52.13;;;;;;;3.17;90.47;101884.63;5050990;28;20120;-75
2021/12/16 10:46:05;;;;;;;149.18;59.13;;;;;;;3.31;91.65;101876.38;5053621;28;20106;-73
2021/12/16 10:49:03;;;;;;;400.75;111.22;;;;;;;3.59;92.78;101873.81;5049248;28;20052;-74
2021/12/16 10:51:54;;;;;;;149.45;60.78;;;;;;;3.70;91.15;101872.84;5047030;28;20044;-73
2021/12/16 10:54:43;;;;;;;130.55;55.08;;;;;;;3.75;90.67;101878.44;5052560;28;20029;-74
2021/12/16 10:57:32;;;;;;;128.85;53.97;;;;;;;3.63;90.06;101862.97;5048079;28;20086;-73
2021/12/16 11:00:18;;;;;;;130.50;55.30;;;;;;;3.71;90.78;101871.88;5050792;28;20048;-73
2021/12/16 11:03:04;;;;;;;142.68;59.85;;;;;;;3.74;90.34;101874.19;5052536;28;20069;-73
2021/12/16 11:05:50;;;;;;;134.55;53.60;;;;;;;3.82;90.54;101869.91;5052918;28;20037;-73
2021/12/16 11:08:35;;;;;;;123.88;51.30;;;;;;;3.74;90.14;101858.56;5040374;28;20486;-73
2021/12/16 11:11:29;;;;;;;133.88;54.92;;;;;;;3.85;89.77;101881.81;5052964;28;20083;-73
2021/12/16 11:14:22;;;;;;;132.35;51.65;;;;;;;3.78;87.83;101875.53;5044229;28;20029;-73
2021/12/16 11:17:11;;;;;;;120.38;50.45;;;;;;;3.86;87.94;101875.66;5041367;28;20067;-74
2021/12/16 11:20:03;;;;;;;116.55;50.10;;;;;;;3.91;88.61;101859.59;5047433;28;20033;-73
2021/12/16 11:22:54;;;;;;;120.05;50.72;;;;;;;3.89;87.20;101858.91;5047193;28;20437;-72
2021/12/16 11:25:45;;;;;;;136.50;55.10;;;;;;;3.99;87.98;101868.31;5051995;28;20529;-73
2021/12/16 11:28:35;;;;;;;132.90;54.47;;;;;;;3.94;87.27;101846.25;5051935;28;20033;-73
2021/12/16 11:31:30;;;;;;;132.68;53.65;;;;;;;3.98;87.16;101852.84;5059720;28;20051;-72
2021/12/16 11:34:19;;;;;;;212.38;68.10;;;;;;;4.01;87.85;101855.94;5052655;28;20033;-72
2021/12/16 11:37:05;;;;;;;159.15;62.15;;;;;;;4.08;88.11;101837.94;5049456;28;20040;-73
2021/12/16 11:39:51;;;;;;;147.38;58.53;;;;;;;3.96;87.61;101833.91;5037836;28;20179;-73
2021/12/16 11:42:36;;;;;;;128.85;55.50;;;;;;;4.00;87.80;101851.72;5038118;28;20132;-73
2021/12/16 11:45:37;;;;;;;133.55;54.45;;;;;;;4.06;87.95;101847.69;5040076;28;20040;-73
2021/12/16 11:48:31;;;;;;;131.30;56.03;;;;;;;4.00;88.30;101843.09;5042348;28;20144;-73
2021/12/16 11:51:23;;;;;;;141.02;55.55;;;;;;;3.91;88.29;101836.94;5038456;28;20620;-73
2021/12/16 11:54:17;;;;;;;135.80;56.30;;;;;;;3.84;87.16;101836.69;5052898;28;20623;-73
2021/12/16 11:57:03;;;;;;;143.43;57.55;;;;;;;3.91;87.86;101836.94;5037224;28;20112;-73
2021/12/16 12:00:11;;;;;;;150.00;59.15;;;;;;;3.96;87.73;101828.69;5036790;28;20474;-73
2021/12/16 12:03:01;;;;;;;146.90;58.50;;;;;;;3.96;87.25;101829.50;5051605;28;20045;-73
2021/12/16 12:05:49;;;;;;;140.65;58.03;;;;;;;3.92;87.17;101827.34;5046087;28;20052;-73
2021/12/16 12:08:35;;;;;;;161.40;63.00;;;;;;;3.89;87.69;101815.41;5049218;28;20037;-73
2021/12/16 12:11:31;;;;;;;170.07;65.75;;;;;;;3.99;87.53;101834.41;5049277;28;20146;-73
2021/12/16 12:14:17;;;;;;;169.27;64.55;;;;;;;4.00;87.81;101828.25;5051128;28;20487;-73
2021/12/16 12:17:18;;;;;;;170.07;66.32;;;;;;;4.00;87.12;101819.63;5049887;28;20041;-73
2021/12/16 12:20:05;;;;;;;160.80;68.40;;;;;;;3.78;86.74;101777.38;5049966;28;20063;-74
2021/12/16 12:22:53;;;;;;;171.60;69.05;;;;;;;4.05;87.41;101813.00;5045839;28;20039;-73
2021/12/16 12:25:39;;;;;;;141.50;59.55;;;;;;;4.12;87.18;101812.38;5038077;28;20663;-73
2021/12/16 12:28:24;;;;;;;142.48;60.05;;;;;;;4.07;87.06;101802.44;5053407;28;20056;-72
2021/12/16 12:31:11;;;;;;;140.80;60.50;;;;;;;4.06;87.48;101803.38;5030689;28;20033;-72
2021/12/16 12:33:58;;;;;;;160.40;64.93;;;;;;;4.01;86.86;101790.78;5046269;28;20124;-74
2021/12/16 12:36:46;;;;;;;142.38;58.70;;;;;;;4.02;86.70;101784.63;5036579;28;20491;-73
2021/12/16 12:39:38;;;;;;;143.48;62.67;;;;;;;4.14;86.70;101802.66;5037069;28;20048;-70
2021/12/16 12:42:25;;;;;;;228.63;90.20;;;;;;;4.05;86.58;101797.34;5036820;28;20090;-69
2021/12/16 12:45:14;;;;;;;122.13;51.55;;;;;;;3.93;84.33;101792.50;5035188;28;20487;-70
2021/12/16 12:48:04;;;;;;;108.75;48.72;;;;;;;3.96;84.79;101793.03;5046676;28;20121;-69
2021/12/16 12:50:51;;;;;;;109.97;48.38;;;;;;;4.01;85.15;101819.47;5048333;28;20044;-70
2021/12/16 12:53:49;;;;;;;104.88;47.70;;;;;;;3.98;85.28;101806.72;5048383;28;20037;-74
2021/12/16 12:56:35;;;;;;;105.53;46.78;;;;;;;3.84;84.88;101804.63;5051352;28;20037;-73
2021/12/16 12:59:36;;;;;;;98.03;45.38;;;;;;;3.74;84.63;101809.06;5046330;28;20040;-74
2021/12/16 13:02:27;;;;;;;102.82;45.47;;;;;;;3.80;84.63;101824.91;5049627;28;20040;-74
2021/12/16 13:05:21;;;;;;;100.65;44.85;;;;;;;3.75;85.15;101821.13;5048611;28;20040;-70
2021/12/16 13:08:11;;;;;;;107.40;47.83;;;;;;;3.79;85.34;101825.91;5050273;28;20037;-72
2021/12/16 13:11:12;;;;;;;105.43;45.10;;;;;;;3.79;85.64;101827.69;5048587;28;20384;-70
2021/12/16 13:14:36;;;;;;;106.47;45.22;;;;;;;3.79;85.31;101827.69;5044952;28;20045;-69
2021/12/16 13:24:52;;;;;;;112.32;47.72;;;;;;;3.82;85.46;101824.78;5050389;28;20459;-69
2021/12/16 13:27:07;;;;;;;107.32;47.40;;;;;;;3.78;84.53;101813.00;5041634;28;20036;-71
2021/12/16 13:33:17;;;;;;;103.35;47.47;;;;;;;3.75;84.80;101814.13;5038180;28;20080;-73
2021/12/16 13:36:07;;;;;;;106.30;47.22;;;;;;;3.78;85.18;101803.44;5038095;28;20037;-72
2021/12/16 13:38:54;;;;;;;110.55;49.05;;;;;;;3.87;85.00;101811.31;5033771;28;20033;-73
2021/12/16 13:41:56;;;;;;;109.53;46.83;;;;;;;3.79;85.17;101812.06;5048645;28;20082;-72
2021/12/16 13:45:05;;;;;;;105.22;48.72;;;;;;;3.89;85.54;101825.84;5052106;28;20049;-72
2021/12/16 13:58:17;;;;;;;109.65;50.33;;;;;;;3.84;84.92;101831.50;5049400;28;20140;-72
2021/12/16 14:04:35;;;;;;;114.47;51.65;;;;;;;3.78;85.32;101844.28;5017316;28;20037;-72
2021/12/16 14:07:51;;;;;;;120.82;53.35;;;;;;;3.78;85.38;101831.25;5010479;28;20199;-72
2021/12/16 14:10:44;;;;;;;119.85;52.10;;;;;;;3.88;84.90;101847.66;5006830;28;20060;-72
2021/12/16 14:23:03;;;;;;;120.13;54.70;;;;;;;4.09;85.63;101842.19;4999815;28;20042;-72
2021/12/16 14:35:23;;;;;;;111.40;49.47;;;;;;;4.19;85.39;101824.72;4970265;28;20038;-73
2021/12/16 14:38:24;;;;;;;101.88;47.25;;;;;;;4.14;85.74;101810.47;4958288;28;20477;-73
2021/12/16 14:50:08;;;;;;;98.20;48.35;;;;;;;4.21;85.13;101824.53;5007201;28;20038;-74
2021/12/16 14:52:56;;;;;;;106.35;49.13;;;;;;;4.23;85.47;101825.22;5006104;28;20048;-73
2021/12/16 14:55:43;;;;;;;104.32;46.88;;;;;;;4.21;85.34;101824.53;4997369;28;20038;-73
2021/12/16 14:58:30;;;;;;;104.95;47.78;;;;;;;4.12;85.55;101802.81;5007271;28;20034;-73
2021/12/16 15:01:20;;;;;;;112.97;51.85;;;;;;;4.23;85.29;101825.22;4992056;28;20045;-74
2021/12/16 15:04:09;;;;;;;117.95;54.75;;;;;;;4.23;85.26;101827.84;5050146;28;20052;-73
2021/12/16 15:07:02;;;;;;;114.35;53.22;;;;;;;4.10;85.35;101796.09;5052093;28;20115;-73
2021/12/16 15:09:48;;;;;;;116.13;49.42;;;;;;;3.92;85.54;101785.63;5052480;28;20102;-74
2021/12/16 15:12:47;;;;;;;102.13;48.42;;;;;;;4.20;85.95;101815.09;5051443;28;20051;-73
2021/12/16 15:15:42;;;;;;;93.03;43.30;;;;;;;4.29;85.58;101826.44;5049735;28;20037;-74
2021/12/16 15:42:55;;;;;;;117.07;54.83;;;;;;;4.13;85.62;101820.06;5051508;28;20414;-77
2021/12/16 15:45:46;;;;;;;115.35;53.50;;;;;;;4.15;85.79;101832.97;5040295;28;20036;-77
2021/12/16 15:48:34;;;;;;;100.60;46.33;;;;;;;3.94;85.65;101810.59;5049627;28;20041;-77
2021/12/16 15:51:22;;;;;;;111.80;50.50;;;;;;;4.15;85.55;101849.44;5041346;28;20033;-78
2021/12/16 15:54:10;;;;;;;104.35;46.00;;;;;;;4.06;86.02;101837.28;5040462;28;20056;-78
2021/12/16 15:56:56;;;;;;;107.53;46.53;;;;;;;4.07;85.49;101838.94;5037535;28;20034;-78
2021/12/16 15:59:48;;;;;;;119.38;49.75;;;;;;;4.10;86.09;101841.22;5035964;28;20439;-78
2021/12/16 16:02:33;;;;;;;118.93;47.35;;;;;;;4.11;86.26;101847.25;5040016;28;20630;-77
2021/12/16 16:05:19;;;;;;;99.25;45.17;;;;;;;4.00;86.21;101828.25;5038299;28;20179;-78
2021/12/16 16:08:10;;;;;;;94.68;43.30;;;;;;;4.12;86.30;101848.88;5063412;28;20032;-78
2021/12/16 16:11:00;;;;;;;91.30;41.92;;;;;;;4.00;86.53;101830.88;5053986;28;20123;-78
2021/12/16 16:13:52;;;;;;;98.80;45.05;;;;;;;4.05;86.56;101835.66;5048294;28;20032;-76
2021/12/16 16:16:44;;;;;;;108.35;47.95;;;;;;;4.19;86.34;101845.56;5044664;28;20120;-75
2021/12/16 16:19:37;;;;;;;112.85;52.28;;;;;;;4.11;86.50;101834.22;5047826;28;20417;-74
2021/12/16 16:22:23;;;;;;;120.28;54.63;;;;;;;4.24;86.93;101834.72;5049589;28;20045;-76
2021/12/16 16:25:09;;;;;;;111.10;50.80;;;;;;;4.29;86.62;101834.25;5051125;28;20052;-76
2021/12/16 16:27:57;;;;;;;106.72;49.45;;;;;;;4.25;86.31;101838.94;5049099;28;20124;-77
2021/12/16 16:30:44;;;;;;;90.68;43.22;;;;;;;4.30;86.11;101859.34;5047321;28;20041;-76
2021/12/16 16:33:33;;;;;;;86.78;42.55;;;;;;;4.22;85.42;101860.09;5036977;28;20045;-75
2021/12/16 16:36:22;;;;;;;92.70;42.83;;;;;;;4.17;85.60;101849.28;5038983;28;20479;-77
2021/12/16 16:39:11;;;;;;;95.63;43.95;;;;;;;4.17;86.36;101849.28;5039185;28;20033;-77
2021/12/16 16:42:04;;;;;;;115.93;52.95;;;;;;;4.21;86.75;101840.19;5041006;28;20041;-75
2021/12/16 16:44:53;;;;;;;101.63;47.88;;;;;;;3.92;86.60;101794.28;5038045;28;20053;-76
2021/12/16 16:47:51;;;;;;;107.47;50.60;;;;;;;4.26;86.65;101854.44;5039307;28;20033;-77